Time;durP1;ratioP1;P1;durP2;ratioP2;P2;SDS_P1;SDS_P2;PMS_P1;PMS_P2;Temp;Humidity;BMP_temperature;BMP_pressure;BME280_temperature;BME280_humidity;BME280_pressure;Samples;Min_cycle;Max_cycle;Signal;HPM_P1;HPM_P2
2022/12/05 00:00:49;;;;;;;47.92;27.85;;;;;;;;;;5037860;28;20142;-71
2022/12/05 00:03:15;;;;;;;46.35;26.25;;;;;;;;;;5037379;28;20077;-71
2022/12/05 00:05:42;;;;;;;43.70;24.80;;;;;;;;;;5040226;28;20072;-71
2022/12/05 00:08:08;;;;;;;48.17;26.65;;;;;;;;;;5056473;28;20145;-71
2022/12/05 00:10:37;;;;;;;44.45;24.67;;;;;;;;;;5058601;28;21484;-71
2022/12/05 00:13:03;;;;;;;44.00;24.42;;;;;;;;;;5031853;28;22355;-71
2022/12/05 00:15:29;;;;;;;45.00;26.13;;;;;;;;;;5048774;28;20048;-71
2022/12/05 00:17:55;;;;;;;42.75;25.23;;;;;;;;;;5036845;28;20082;-71
2022/12/05 00:20:21;;;;;;;41.50;23.67;;;;;;;;;;5035528;28;20067;-71
2022/12/05 00:22:47;;;;;;;41.00;23.92;;;;;;;;;;5039170;28;20090;-71
2022/12/05 00:25:14;;;;;;;38.13;22.27;;;;;;;;;;5056891;28;20075;-71
2022/12/05 00:27:40;;;;;;;41.65;22.17;;;;;;;;;;5055552;28;20037;-71
2022/12/05 00:30:07;;;;;;;34.08;22.77;;;;;;;;;;5057217;28;20127;-71
2022/12/05 00:32:33;;;;;;;35.45;19.48;;;;;;;;;;5055339;28;20067;-71
2022/12/05 00:34:59;;;;;;;31.45;18.20;;;;;;;;;;5054187;28;20147;-71
2022/12/05 00:37:25;;;;;;;30.42;20.33;;;;;;;;;;5037377;28;20094;-71
2022/12/05 00:39:51;;;;;;;28.23;18.45;;;;;;;;;;5035560;28;20429;-71
2022/12/05 00:42:17;;;;;;;27.58;17.92;;;;;;;;;;5039502;28;20048;-71
2022/12/05 00:44:43;;;;;;;24.83;16.50;;;;;;;;;;5038300;28;20048;-71
2022/12/05 00:47:09;;;;;;;24.45;15.88;;;;;;;;;;5056296;28;20515;-71
2022/12/05 00:49:35;;;;;;;25.63;16.80;;;;;;;;;;5058055;28;20082;-71
2022/12/05 00:52:01;;;;;;;25.27;17.20;;;;;;;;;;5059025;28;20087;-71
2022/12/05 00:54:27;;;;;;;30.50;16.30;;;;;;;;;;5061162;28;20090;-71
2022/12/05 00:56:56;;;;;;;25.27;16.90;;;;;;;;;;5058102;28;21956;-71
2022/12/05 00:59:22;;;;;;;24.75;16.77;;;;;;;;;;5061370;28;20044;-71
2022/12/05 01:01:49;;;;;;;28.83;17.15;;;;;;;;;;5041685;28;20061;-71
2022/12/05 01:04:18;;;;;;;23.98;16.50;;;;;;;;;;5059491;28;20036;-71
2022/12/05 01:06:44;;;;;;;28.75;16.42;;;;;;;;;;5061163;28;20052;-71
2022/12/05 01:09:12;;;;;;;22.85;14.93;;;;;;;;;;5061084;28;20053;-71
2022/12/05 01:11:38;;;;;;;22.65;15.25;;;;;;;;;;5060148;28;21935;-71
2022/12/05 01:14:05;;;;;;;23.77;14.85;;;;;;;;;;5060471;28;20044;-71
2022/12/05 01:16:35;;;;;;;21.10;14.48;;;;;;;;;;5041932;28;20453;-71
2022/12/05 01:19:02;;;;;;;23.77;14.45;;;;;;;;;;5038512;28;20044;-71
2022/12/05 01:21:28;;;;;;;20.88;14.05;;;;;;;;;;5058193;28;20044;-71
2022/12/05 01:23:54;;;;;;;19.88;13.90;;;;;;;;;;5059131;28;21934;-71
2022/12/05 01:26:21;;;;;;;24.67;14.30;;;;;;;;;;5024387;28;21251;-71
2022/12/05 01:28:48;;;;;;;19.00;13.65;;;;;;;;;;5037845;28;20076;-71
2022/12/05 01:31:14;;;;;;;23.40;13.88;;;;;;;;;;5044506;28;20082;-71
2022/12/05 01:33:40;;;;;;;19.40;13.18;;;;;;;;;;5056522;28;20048;-71
2022/12/05 01:36:09;;;;;;;19.75;12.80;;;;;;;;;;5035773;28;20048;-71
2022/12/05 01:38:35;;;;;;;20.50;11.80;;;;;;;;;;5044189;28;20102;-71
2022/12/05 01:41:02;;;;;;;22.52;13.77;;;;;;;;;;5039566;28;20047;-71
2022/12/05 01:43:28;;;;;;;25.20;13.85;;;;;;;;;;5057560;28;20138;-71
2022/12/05 01:45:55;;;;;;;16.52;13.77;;;;;;;;;;5058476;28;20050;-71
2022/12/05 01:48:23;;;;;;;20.33;13.02;;;;;;;;;;5058704;28;20349;-71
2022/12/05 01:50:50;;;;;;;16.70;12.25;;;;;;;;;;5037560;28;20058;-71
2022/12/05 01:53:16;;;;;;;18.85;12.80;;;;;;;;;;5056342;28;20075;-71
2022/12/05 01:55:43;;;;;;;19.17;12.68;;;;;;;;;;5037938;28;20079;-71
2022/12/05 01:58:10;;;;;;;20.17;12.45;;;;;;;;;;5055427;28;20769;-71
2022/12/05 02:00:36;;;;;;;20.70;11.82;;;;;;;;;;5036013;28;20040;-71
2022/12/05 02:03:05;;;;;;;18.75;11.32;;;;;;;;;;5037390;28;20056;-71
2022/12/05 02:05:33;;;;;;;18.88;12.50;;;;;;;;;;5036615;28;20048;-71
2022/12/05 02:08:01;;;;;;;19.25;12.73;;;;;;;;;;5052877;28;20408;-71
2022/12/05 02:10:28;;;;;;;17.17;11.10;;;;;;;;;;5036765;28;20063;-71
2022/12/05 02:12:54;;;;;;;16.77;11.02;;;;;;;;;;5036291;28;20064;-71
2022/12/05 02:15:38;;;;;;;16.15;10.13;;;;;;;;;;5036296;28;20055;-71
2022/12/05 02:18:04;;;;;;;;;;;;;;;;;;5037601;28;20416;-72
2022/12/05 02:20:42;;;;;;;19.90;11.00;;;;;;;;;;5034742;28;19920;-73
2022/12/05 02:23:08;;;;;;;15.18;9.52;;;;;;;;;;5036174;28;20869;-72
2022/12/05 02:25:53;;;;;;;14.98;10.15;;;;;;;;;;5019037;28;20051;-72
2022/12/05 02:28:37;;;;;;;17.38;9.90;;;;;;;;;;5056717;28;20149;-73
2022/12/05 02:31:10;;;;;;;17.80;10.32;;;;;;;;;;5055363;28;20048;-72
2022/12/05 02:33:39;;;;;;;12.88;9.48;;;;;;;;;;5055487;28;20052;-73
2022/12/05 02:36:12;;;;;;;12.95;9.20;;;;;;;;;;5036225;28;20048;-73
2022/12/05 02:38:45;;;;;;;15.32;9.38;;;;;;;;;;5056076;28;20067;-73
2022/12/05 02:41:27;;;;;;;13.80;9.90;;;;;;;;;;5037904;28;20951;-73
2022/12/05 02:43:53;;;;;;;15.60;10.13;;;;;;;;;;5039650;28;20135;-73
2022/12/05 02:46:21;;;;;;;14.77;9.55;;;;;;;;;;5055346;28;20055;-73
2022/12/05 02:48:48;;;;;;;14.45;9.90;;;;;;;;;;5054969;28;20155;-72
2022/12/05 02:51:16;;;;;;;16.08;9.98;;;;;;;;;;5036522;28;20211;-73
2022/12/05 02:53:43;;;;;;;13.25;10.02;;;;;;;;;;5036460;28;20109;-73
2022/12/05 02:56:10;;;;;;;15.25;10.20;;;;;;;;;;5053277;28;22254;-73
2022/12/05 02:58:40;;;;;;;14.90;9.07;;;;;;;;;;5053287;28;20050;-73
2022/12/05 03:01:06;;;;;;;13.50;9.55;;;;;;;;;;5034562;28;20103;-71
2022/12/05 03:03:32;;;;;;;19.38;10.52;;;;;;;;;;5050500;28;20516;-71
2022/12/05 03:06:17;;;;;;;17.33;11.25;;;;;;;;;;5051673;28;22088;-71
2022/12/05 03:08:43;;;;;;;;;;;;;;;;;;5051210;28;20074;-71
2022/12/05 03:11:10;;;;;;;14.95;10.32;;;;;;;;;;5037274;28;19926;-71
2022/12/05 03:13:40;;;;;;;15.52;10.70;;;;;;;;;;5050832;28;20044;-71
2022/12/05 03:16:09;;;;;;;18.65;11.35;;;;;;;;;;5032401;28;20048;-71
2022/12/05 03:18:38;;;;;;;18.13;11.23;;;;;;;;;;5053009;28;20043;-71
2022/12/05 03:21:14;;;;;;;16.63;10.95;;;;;;;;;;5052488;28;20048;-71
2022/12/05 03:23:44;;;;;;;26.80;12.25;;;;;;;;;;5052746;28;20148;-72
2022/12/05 03:26:14;;;;;;;16.38;10.82;;;;;;;;;;5035118;28;20125;-71
2022/12/05 03:28:49;;;;;;;19.30;12.27;;;;;;;;;;5034485;28;20056;-71
2022/12/05 03:31:20;;;;;;;20.65;13.27;;;;;;;;;;5022790;28;20040;-71
2022/12/05 03:33:49;;;;;;;18.90;11.63;;;;;;;;;;5033748;28;20111;-71
2022/12/05 03:36:17;;;;;;;18.67;11.95;;;;;;;;;;5052757;28;20056;-71
2022/12/05 03:38:46;;;;;;;19.75;12.25;;;;;;;;;;5056171;28;20129;-71
2022/12/05 03:41:31;;;;;;;19.08;11.73;;;;;;;;;;5056937;28;20040;-71
2022/12/05 03:44:00;;;;;;;18.40;11.25;;;;;;;;;;5055986;28;20055;-71
2022/12/05 03:46:34;;;;;;;17.40;12.00;;;;;;;;;;5037306;28;20063;-71
2022/12/05 03:49:03;;;;;;;24.95;11.15;;;;;;;;;;5036261;28;20058;-71
2022/12/05 03:51:32;;;;;;;15.43;10.82;;;;;;;;;;5035994;28;22097;-71
2022/12/05 03:54:05;;;;;;;17.05;10.50;;;;;;;;;;5055739;28;20044;-71
2022/12/05 03:56:34;;;;;;;17.10;10.90;;;;;;;;;;5055216;28;20048;-71
2022/12/05 03:59:12;;;;;;;19.48;11.85;;;;;;;;;;5052554;28;20078;-71
2022/12/05 04:01:39;;;;;;;22.00;11.75;;;;;;;;;;5051542;28;20047;-71
2022/12/05 04:04:09;;;;;;;18.15;10.02;;;;;;;;;;5036524;28;20044;-70
2022/12/05 04:06:37;;;;;;;20.75;10.77;;;;;;;;;;5019420;28;20048;-71
2022/12/05 04:09:11;;;;;;;17.20;10.57;;;;;;;;;;5033056;28;20177;-71
2022/12/05 04:11:40;;;;;;;20.40;10.68;;;;;;;;;;5051459;28;20054;-71
2022/12/05 04:14:08;;;;;;;17.98;11.32;;;;;;;;;;5033311;28;20927;-71
2022/12/05 04:21:36;;;;;;;17.85;10.98;;;;;;;;;;5051240;28;20146;-71
2022/12/05 04:22:16;;;;;;;19.83;10.40;;;;;;;;;;5054848;28;20048;-71
2022/12/05 04:27:38;;;;;;;15.80;10.55;;;;;;;;;;5057008;28;20070;-71
2022/12/05 04:30:06;;;;;;;22.15;11.25;;;;;;;;;;5054720;28;20828;-71
2022/12/05 04:32:39;;;;;;;18.45;10.50;;;;;;;;;;5028407;28;20051;-71
2022/12/05 04:35:09;;;;;;;16.35;11.32;;;;;;;;;;5036715;28;20054;-71
2022/12/05 04:37:36;;;;;;;20.73;11.13;;;;;;;;;;5037720;28;20121;-71
2022/12/05 04:40:05;;;;;;;27.20;12.65;;;;;;;;;;5054189;28;20056;-71
2022/12/05 04:42:33;;;;;;;20.25;11.80;;;;;;;;;;5035930;28;20139;-71
2022/12/05 04:45:02;;;;;;;18.30;11.57;;;;;;;;;;5029015;28;20048;-71
2022/12/05 04:47:30;;;;;;;23.38;11.57;;;;;;;;;;5055391;28;21875;-71
2022/12/05 04:49:58;;;;;;;20.90;11.88;;;;;;;;;;5055595;28;20139;-72
2022/12/05 04:52:26;;;;;;;22.17;11.48;;;;;;;;;;5036479;28;20056;-71
2022/12/05 04:54:57;;;;;;;19.98;11.88;;;;;;;;;;5054340;28;20163;-71
2022/12/05 04:57:28;;;;;;;20.13;11.82;;;;;;;;;;5038105;28;20058;-71
2022/12/05 04:59:54;;;;;;;18.55;11.30;;;;;;;;;;5039253;28;20155;-72
2022/12/05 05:02:24;;;;;;;24.52;12.07;;;;;;;;;;5054534;28;20055;-71
2022/12/05 05:04:52;;;;;;;18.15;11.65;;;;;;;;;;5036592;28;20051;-71
2022/12/05 05:07:18;;;;;;;18.23;11.07;;;;;;;;;;5038236;28;21649;-71
2022/12/05 05:09:44;;;;;;;26.85;11.48;;;;;;;;;;5057534;28;20051;-72
2022/12/05 05:12:11;;;;;;;21.33;11.85;;;;;;;;;;5038670;28;20145;-71
2022/12/05 05:14:37;;;;;;;18.65;12.32;;;;;;;;;;5029245;28;20052;-71
2022/12/05 05:17:03;;;;;;;20.88;11.90;;;;;;;;;;5041807;28;20129;-71
2022/12/05 05:19:29;;;;;;;21.55;12.25;;;;;;;;;;5050473;28;20140;-72
2022/12/05 05:21:56;;;;;;;27.77;11.98;;;;;;;;;;5057877;28;20059;-71
2022/12/05 05:24:22;;;;;;;30.88;13.38;;;;;;;;;;5058099;28;20747;-71
2022/12/05 05:26:48;;;;;;;22.08;11.45;;;;;;;;;;5056251;28;20127;-72
2022/12/05 05:29:15;;;;;;;19.38;11.35;;;;;;;;;;5061956;28;20048;-71
2022/12/05 05:31:41;;;;;;;20.80;11.95;;;;;;;;;;5043600;28;20056;-71
2022/12/05 05:34:08;;;;;;;22.33;12.07;;;;;;;;;;5040061;28;20106;-72
2022/12/05 05:36:34;;;;;;;17.55;10.68;;;;;;;;;;5020626;28;20060;-72
2022/12/05 05:39:01;;;;;;;18.25;11.25;;;;;;;;;;5057499;28;20934;-72
2022/12/05 05:41:28;;;;;;;17.90;10.35;;;;;;;;;;5035965;28;20056;-72
2022/12/05 05:43:54;;;;;;;23.50;11.63;;;;;;;;;;5042776;28;21523;-72
2022/12/05 05:46:21;;;;;;;24.75;12.27;;;;;;;;;;5042441;28;20076;-72
2022/12/05 05:48:48;;;;;;;24.77;11.68;;;;;;;;;;5036905;28;20048;-72
2022/12/05 05:51:14;;;;;;;23.17;10.90;;;;;;;;;;5041542;28;20052;-72
2022/12/05 05:53:41;;;;;;;23.80;10.63;;;;;;;;;;5056459;28;20052;-71
2022/12/05 05:56:11;;;;;;;20.90;10.77;;;;;;;;;;5017786;28;20048;-72
2022/12/05 05:58:38;;;;;;;20.70;11.27;;;;;;;;;;5057524;28;20424;-72
2022/12/05 06:01:05;;;;;;;21.77;11.05;;;;;;;;;;5034719;28;20047;-72
2022/12/05 06:03:31;;;;;;;20.02;10.90;;;;;;;;;;5039481;28;20090;-73
2022/12/05 06:05:57;;;;;;;24.17;10.95;;;;;;;;;;5039857;28;20109;-73
2022/12/05 06:08:23;;;;;;;22.67;10.40;;;;;;;;;;5041404;28;20048;-74
2022/12/05 06:10:49;;;;;;;16.90;10.50;;;;;;;;;;5024835;28;20659;-73
2022/12/05 06:13:15;;;;;;;22.00;12.07;;;;;;;;;;5037843;28;22089;-73
2022/12/05 06:15:41;;;;;;;23.92;11.77;;;;;;;;;;5059406;28;20956;-73
2022/12/05 06:18:07;;;;;;;25.02;11.43;;;;;;;;;;5039103;28;20048;-73
2022/12/05 06:20:33;;;;;;;21.67;11.88;;;;;;;;;;5038033;28;20058;-73
2022/12/05 06:22:59;;;;;;;21.02;10.63;;;;;;;;;;5040152;28;20056;-72
2022/12/05 06:25:26;;;;;;;19.23;11.25;;;;;;;;;;5042033;28;20119;-72
2022/12/05 06:27:52;;;;;;;22.20;11.75;;;;;;;;;;5038948;28;20048;-73
2022/12/05 06:30:18;;;;;;;20.27;10.65;;;;;;;;;;5038690;28;20446;-72
2022/12/05 06:32:44;;;;;;;24.35;11.52;;;;;;;;;;5029125;28;20141;-73
2022/12/05 06:35:14;;;;;;;23.98;11.75;;;;;;;;;;5058080;28;20385;-73
2022/12/05 06:37:44;;;;;;;22.33;11.02;;;;;;;;;;5048138;28;20139;-73
2022/12/05 06:40:14;;;;;;;20.67;10.23;;;;;;;;;;5040269;28;20059;-73
2022/12/05 06:42:40;;;;;;;21.77;11.43;;;;;;;;;;5039806;28;20057;-73
2022/12/05 06:45:06;;;;;;;20.27;11.25;;;;;;;;;;5045653;28;20112;-73
2022/12/05 06:47:33;;;;;;;24.90;10.82;;;;;;;;;;5036901;28;20054;-73
2022/12/05 06:49:59;;;;;;;21.05;11.15;;;;;;;;;;5039425;28;20067;-73
2022/12/05 06:52:25;;;;;;;21.60;10.07;;;;;;;;;;5060202;28;20052;-72
2022/12/05 06:54:51;;;;;;;20.85;11.52;;;;;;;;;;5059056;28;20052;-73
2022/12/05 06:57:17;;;;;;;21.90;11.32;;;;;;;;;;5044551;28;20082;-73
2022/12/05 06:59:43;;;;;;;24.85;10.93;;;;;;;;;;5058671;28;20050;-73
2022/12/05 07:02:11;;;;;;;17.60;10.40;;;;;;;;;;5039394;28;20062;-73
2022/12/05 07:04:37;;;;;;;23.05;11.15;;;;;;;;;;5061973;28;20036;-73
2022/12/05 07:07:04;;;;;;;19.98;10.27;;;;;;;;;;5044932;28;20052;-72
2022/12/05 07:09:47;;;;;;;19.70;11.13;;;;;;;;;;5045789;28;20040;-72
2022/12/05 07:12:14;;;;;;;16.83;9.90;;;;;;;;;;5050730;28;20060;-72
2022/12/05 07:14:40;;;;;;;20.83;11.95;;;;;;;;;;5049663;28;20174;-72
2022/12/05 07:17:06;;;;;;;24.77;10.98;;;;;;;;;;5038915;28;20059;-72
2022/12/05 07:19:32;;;;;;;22.83;9.73;;;;;;;;;;5068824;28;20896;-72
2022/12/05 07:21:58;;;;;;;19.60;10.73;;;;;;;;;;5048428;28;20051;-72
2022/12/05 07:24:24;;;;;;;17.83;9.73;;;;;;;;;;5051441;28;20056;-72
2022/12/05 07:26:50;;;;;;;18.70;10.50;;;;;;;;;;5046491;28;20122;-72
2022/12/05 07:29:16;;;;;;;21.25;11.05;;;;;;;;;;5054033;28;20504;-73
2022/12/05 07:31:42;;;;;;;16.17;10.07;;;;;;;;;;5051996;28;20151;-72
2022/12/05 07:34:08;;;;;;;17.48;10.27;;;;;;;;;;5067169;28;20048;-72
2022/12/05 07:36:34;;;;;;;17.20;9.63;;;;;;;;;;5060378;28;20044;-72
2022/12/05 07:39:00;;;;;;;18.88;10.10;;;;;;;;;;5036400;28;20118;-72
2022/12/05 07:41:31;;;;;;;20.17;9.52;;;;;;;;;;5055769;28;20106;-72
2022/12/05 07:43:57;;;;;;;22.58;9.48;;;;;;;;;;5047843;28;20178;-72
2022/12/05 07:46:24;;;;;;;15.70;8.90;;;;;;;;;;5036264;28;20091;-72
2022/12/05 07:48:50;;;;;;;19.88;10.07;;;;;;;;;;5055804;28;20122;-72
2022/12/05 07:51:17;;;;;;;20.00;9.98;;;;;;;;;;5058457;28;20135;-72
2022/12/05 07:53:43;;;;;;;23.85;9.73;;;;;;;;;;5050604;28;20131;-77
2022/12/05 07:56:10;;;;;;;18.48;9.45;;;;;;;;;;5058468;28;20145;-72
2022/12/05 07:58:36;;;;;;;20.33;8.60;;;;;;;;;;5043987;28;20138;-72
2022/12/05 08:01:06;;;;;;;23.42;10.10;;;;;;;;;;5061238;28;20072;-72
2022/12/05 08:03:33;;;;;;;18.65;9.30;;;;;;;;;;5063499;28;20052;-72
2022/12/05 08:06:03;;;;;;;16.70;9.32;;;;;;;;;;5045177;28;20111;-72
2022/12/05 08:08:29;;;;;;;17.48;10.05;;;;;;;;;;5058618;28;20063;-72
2022/12/05 08:10:55;;;;;;;21.00;9.18;;;;;;;;;;5047045;28;20055;-73
2022/12/05 08:13:21;;;;;;;22.35;9.20;;;;;;;;;;5060280;28;20136;-73
2022/12/05 08:15:47;;;;;;;16.60;8.68;;;;;;;;;;5044202;28;20131;-72
2022/12/05 08:18:13;;;;;;;18.52;10.35;;;;;;;;;;5063074;28;20164;-72
2022/12/05 08:20:42;;;;;;;18.55;9.10;;;;;;;;;;5027815;28;20056;-73
2022/12/05 08:23:08;;;;;;;24.95;10.65;;;;;;;;;;5044824;28;20056;-72
2022/12/05 08:25:34;;;;;;;22.27;9.02;;;;;;;;;;5043768;28;20158;-72
2022/12/05 08:28:00;;;;;;;20.65;9.82;;;;;;;;;;5063381;28;20053;-72
2022/12/05 08:30:26;;;;;;;17.88;9.93;;;;;;;;;;5043619;28;20130;-72
2022/12/05 08:32:52;;;;;;;18.58;9.98;;;;;;;;;;5044688;28;20059;-72
2022/12/05 08:35:18;;;;;;;20.73;10.70;;;;;;;;;;5045520;28;20056;-72
2022/12/05 08:37:44;;;;;;;27.83;11.25;;;;;;;;;;5062702;28;20040;-72
2022/12/05 08:40:10;;;;;;;22.95;11.05;;;;;;;;;;5041026;28;20052;-72
2022/12/05 08:42:36;;;;;;;22.25;11.27;;;;;;;;;;5044407;28;20106;-72
2022/12/05 08:45:03;;;;;;;17.50;10.45;;;;;;;;;;5060710;28;20044;-72
2022/12/05 08:47:29;;;;;;;21.65;10.48;;;;;;;;;;5044668;28;20421;-73
2022/12/05 08:49:55;;;;;;;19.00;10.07;;;;;;;;;;5042926;28;20064;-72
2022/12/05 08:52:21;;;;;;;21.77;11.57;;;;;;;;;;5027708;28;20910;-72
2022/12/05 08:54:47;;;;;;;24.85;10.90;;;;;;;;;;5041360;28;20052;-72
2022/12/05 08:57:13;;;;;;;25.95;11.88;;;;;;;;;;5061500;28;20090;-72
2022/12/05 08:59:40;;;;;;;25.83;12.40;;;;;;;;;;5043476;28;20082;-73
2022/12/05 09:02:06;;;;;;;23.55;11.30;;;;;;;;;;5043299;28;20148;-73
2022/12/05 09:04:32;;;;;;;20.10;11.25;;;;;;;;;;5042223;28;20067;-72
2022/12/05 09:07:01;;;;;;;20.30;11.10;;;;;;;;;;5043317;28;20055;-72
2022/12/05 09:09:27;;;;;;;19.45;11.63;;;;;;;;;;5042773;28;20434;-72
2022/12/05 09:11:53;;;;;;;22.23;12.23;;;;;;;;;;5047903;28;20560;-72
2022/12/05 09:14:19;;;;;;;24.63;12.90;;;;;;;;;;5047590;28;20040;-72
2022/12/05 09:16:46;;;;;;;26.33;12.68;;;;;;;;;;5031727;28;20761;-73
2022/12/05 09:19:17;;;;;;;21.98;11.85;;;;;;;;;;5049214;28;20133;-72
2022/12/05 09:21:43;;;;;;;24.85;11.52;;;;;;;;;;5047087;28;20080;-72
2022/12/05 09:24:10;;;;;;;26.25;12.35;;;;;;;;;;5047643;28;20134;-73
2022/12/05 09:26:36;;;;;;;23.30;13.07;;;;;;;;;;5045560;28;20048;-73
2022/12/05 09:29:03;;;;;;;28.13;12.90;;;;;;;;;;5064536;28;20059;-72
2022/12/05 09:31:29;;;;;;;21.55;11.75;;;;;;;;;;5046484;28;20052;-72
2022/12/05 09:33:55;;;;;;;27.95;13.55;;;;;;;;;;5046312;28;20074;-72
2022/12/05 09:36:22;;;;;;;24.98;13.05;;;;;;;;;;5066052;28;20091;-72
2022/12/05 09:38:48;;;;;;;26.40;12.73;;;;;;;;;;5063707;28;20044;-72
2022/12/05 09:41:20;;;;;;;27.80;12.85;;;;;;;;;;5046583;28;20047;-73
2022/12/05 09:43:52;;;;;;;38.95;15.43;;;;;;;;;;5046618;28;20060;-72
2022/12/05 09:46:43;;;;;;;27.55;12.93;;;;;;;;;;5046688;28;20121;-72
2022/12/05 09:49:10;;;;;;;37.28;14.32;;;;;;;;;;5044333;28;20504;-73
2022/12/05 09:51:39;;;;;;;30.38;14.48;;;;;;;;;;5048096;28;20059;-73
2022/12/05 09:54:05;;;;;;;26.60;14.02;;;;;;;;;;5045934;28;20059;-71
2022/12/05 09:56:32;;;;;;;24.45;12.85;;;;;;;;;;5064545;28;20169;-73
2022/12/05 09:59:01;;;;;;;30.10;14.57;;;;;;;;;;5044014;28;20072;-73
2022/12/05 10:01:30;;;;;;;26.80;13.68;;;;;;;;;;5045281;28;20118;-72
2022/12/05 10:04:16;;;;;;;26.77;12.93;;;;;;;;;;5047429;28;20055;-72
2022/12/05 10:07:01;;;;;;;19.95;12.30;;;;;;;;;;5048148;28;20173;-72
2022/12/05 10:09:33;;;;;;;21.20;12.95;;;;;;;;;;5060676;28;20121;-73
2022/12/05 10:12:10;;;;;;;19.90;11.88;;;;;;;;;;5047222;28;20052;-73
2022/12/05 10:14:42;;;;;;;24.02;12.38;;;;;;;;;;5045308;28;20048;-72
2022/12/05 10:17:24;;;;;;;20.50;9.93;;;;;;;;;;5039258;28;20045;-72
2022/12/05 10:19:52;;;;;;;26.15;12.32;;;;;;;;;;5044024;28;20094;-72
2022/12/05 10:22:22;;;;;;;25.23;11.10;;;;;;;;;;5043404;28;20051;-72
2022/12/05 10:24:54;;;;;;;19.05;10.10;;;;;;;;;;5045732;28;20059;-73
2022/12/05 10:27:40;;;;;;;19.67;10.52;;;;;;;;;;5044538;28;20564;-72
2022/12/05 10:30:14;;;;;;;18.08;10.02;;;;;;;;;;5053216;28;20113;-71
2022/12/05 10:32:42;;;;;;;20.05;10.02;;;;;;;;;;5062954;28;20054;-72
2022/12/05 10:35:19;;;;;;;16.80;9.82;;;;;;;;;;5062055;28;20051;-73
2022/12/05 10:37:59;;;;;;;18.77;9.88;;;;;;;;;;5062031;28;20058;-71
2022/12/05 10:40:34;;;;;;;16.98;9.45;;;;;;;;;;5044680;28;20052;-72
2022/12/05 10:43:00;;;;;;;20.92;9.70;;;;;;;;;;5044119;28;20108;-72
2022/12/05 10:45:26;;;;;;;23.38;9.63;;;;;;;;;;5042537;28;20113;-72
2022/12/05 10:47:53;;;;;;;21.08;9.95;;;;;;;;;;5063505;28;20101;-71
2022/12/05 10:50:26;;;;;;;19.95;9.93;;;;;;;;;;5044067;28;20051;-71
2022/12/05 10:52:53;;;;;;;21.98;10.80;;;;;;;;;;5059527;28;20126;-71
2022/12/05 10:55:19;;;;;;;20.25;10.82;;;;;;;;;;5062350;28;20048;-71
2022/12/05 10:57:50;;;;;;;20.05;10.05;;;;;;;;;;5042765;28;20115;-71
2022/12/05 11:00:19;;;;;;;19.55;10.55;;;;;;;;;;5035550;28;20075;-71
2022/12/05 11:02:47;;;;;;;21.42;10.02;;;;;;;;;;5059966;28;20056;-71
2022/12/05 11:05:13;;;;;;;21.38;10.80;;;;;;;;;;5044460;28;20052;-71
2022/12/05 11:07:48;;;;;;;21.73;9.88;;;;;;;;;;5045102;28;21906;-71
2022/12/05 11:10:22;;;;;;;18.73;10.27;;;;;;;;;;5026986;28;20056;-71
2022/12/05 11:12:48;;;;;;;22.40;10.38;;;;;;;;;;5062217;28;20101;-71
2022/12/05 11:15:26;;;;;;;18.92;10.18;;;;;;;;;;5044890;28;20133;-71
2022/12/05 11:17:54;;;;;;;19.08;9.32;;;;;;;;;;5043538;28;20153;-72
2022/12/05 11:20:20;;;;;;;20.63;9.38;;;;;;;;;;5062976;28;20075;-71
2022/12/05 11:22:48;;;;;;;18.95;9.95;;;;;;;;;;5043148;28;20060;-72
2022/12/05 11:25:34;;;;;;;21.52;9.88;;;;;;;;;;5062098;28;20052;-72
2022/12/05 11:28:20;;;;;;;25.00;9.27;;;;;;;;;;5056770;28;20044;-72
2022/12/05 11:30:57;;;;;;;25.15;10.18;;;;;;;;;;5042786;28;20051;-71
2022/12/05 11:33:24;;;;;;;19.45;9.85;;;;;;;;;;5041954;28;20056;-72
2022/12/05 11:35:51;;;;;;;24.75;10.05;;;;;;;;;;5043159;28;20691;-71
2022/12/05 11:38:19;;;;;;;17.50;10.23;;;;;;;;;;5043057;28;20512;-71
2022/12/05 11:40:44;;;;;;;22.52;10.90;;;;;;;;;;5044186;28;20086;-71
2022/12/05 11:43:11;;;;;;;17.63;9.40;;;;;;;;;;5059316;28;20106;-71
2022/12/05 11:45:46;;;;;;;20.35;9.77;;;;;;;;;;5041151;28;20036;-72
2022/12/05 11:48:31;;;;;;;26.35;9.35;;;;;;;;;;5061244;28;20463;-71
2022/12/05 11:51:10;;;;;;;21.08;9.27;;;;;;;;;;5062105;28;20049;-75
2022/12/05 11:53:50;;;;;;;21.13;9.93;;;;;;;;;;5058186;28;20052;-75
2022/12/05 11:56:34;;;;;;;19.23;8.82;;;;;;;;;;5044429;28;20044;-75
2022/12/05 11:59:12;;;;;;;20.70;8.77;;;;;;;;;;5041583;28;20056;-75
2022/12/05 12:01:57;;;;;;;18.40;8.18;;;;;;;;;;5042937;28;20055;-75
2022/12/05 12:04:32;;;;;;;16.63;8.48;;;;;;;;;;5044830;28;20061;-75
2022/12/05 12:07:03;;;;;;;16.48;8.75;;;;;;;;;;5045462;28;20400;-75
2022/12/05 12:09:34;;;;;;;16.83;8.10;;;;;;;;;;5057664;28;20052;-75
2022/12/05 12:12:15;;;;;;;18.05;8.35;;;;;;;;;;5043445;28;20056;-72
2022/12/05 12:14:46;;;;;;;13.48;7.45;;;;;;;;;;5040874;28;20056;-72
2022/12/05 12:17:26;;;;;;;14.00;7.15;;;;;;;;;;5058779;28;20150;-72
2022/12/05 12:20:10;;;;;;;13.25;6.95;;;;;;;;;;5040355;28;20051;-72
2022/12/05 12:22:55;;;;;;;12.20;7.53;;;;;;;;;;5042331;28;20048;-72
2022/12/05 12:25:40;;;;;;;16.20;7.32;;;;;;;;;;5057305;28;20130;-72
2022/12/05 12:28:06;;;;;;;12.77;6.78;;;;;;;;;;5061675;28;21896;-72
2022/12/05 12:30:38;;;;;;;18.98;7.53;;;;;;;;;;5057932;28;20125;-71
2022/12/05 12:33:12;;;;;;;17.42;6.90;;;;;;;;;;5043603;28;21690;-72
2022/12/05 12:35:52;;;;;;;11.40;7.18;;;;;;;;;;5061625;28;20052;-72
2022/12/05 12:38:24;;;;;;;17.10;7.38;;;;;;;;;;5047125;28;21159;-72
2022/12/05 12:40:57;;;;;;;14.60;6.72;;;;;;;;;;5042844;28;20048;-72
2022/12/05 12:43:39;;;;;;;13.63;7.05;;;;;;;;;;5041068;28;20148;-72
2022/12/05 12:46:15;;;;;;;14.27;7.15;;;;;;;;;;5045949;28;20166;-72
2022/12/05 12:48:48;;;;;;;11.93;6.97;;;;;;;;;;5047186;28;20093;-72
2022/12/05 12:51:14;;;;;;;12.40;7.13;;;;;;;;;;5048432;28;20116;-72
2022/12/05 12:53:48;;;;;;;18.35;7.47;;;;;;;;;;5034953;28;20079;-72
2022/12/05 12:56:24;;;;;;;14.75;7.20;;;;;;;;;;5043691;28;20056;-72
2022/12/05 12:58:51;;;;;;;14.13;6.80;;;;;;;;;;5028528;28;20056;-72
2022/12/05 13:01:30;;;;;;;16.70;7.03;;;;;;;;;;5047393;28;20133;-72
2022/12/05 13:04:01;;;;;;;11.20;6.25;;;;;;;;;;5047072;28;20056;-72
2022/12/05 13:06:27;;;;;;;11.73;6.50;;;;;;;;;;5055944;28;20050;-72
2022/12/05 13:09:02;;;;;;;18.17;6.38;;;;;;;;;;5033920;28;20513;-72
2022/12/05 13:11:30;;;;;;;16.52;6.28;;;;;;;;;;5065157;28;20048;-72
2022/12/05 13:13:58;;;;;;;15.43;6.70;;;;;;;;;;5051384;28;20441;-72
2022/12/05 13:16:34;;;;;;;14.80;6.10;;;;;;;;;;5050143;28;20163;-72
2022/12/05 13:19:02;;;;;;;20.13;6.35;;;;;;;;;;5045831;28;20056;-72
2022/12/05 13:21:28;;;;;;;14.77;6.45;;;;;;;;;;5047798;28;21035;-72
2022/12/05 13:23:58;;;;;;;16.95;5.78;;;;;;;;;;5046504;28;20050;-72
2022/12/05 13:26:24;;;;;;;12.18;5.88;;;;;;;;;;5046590;28;20066;-72
2022/12/05 13:28:52;;;;;;;12.02;4.80;;;;;;;;;;5064246;28;20049;-72
2022/12/05 13:31:19;;;;;;;14.98;6.00;;;;;;;;;;5046049;28;20559;-72
2022/12/05 13:33:46;;;;;;;10.45;5.30;;;;;;;;;;5043655;28;20055;-72
2022/12/05 13:42:14;;;;;;;14.40;6.07;;;;;;;;;;5040817;28;20048;-73
2022/12/05 13:44:40;;;;;;;9.20;5.35;;;;;;;;;;5046077;28;20140;-73
2022/12/05 13:47:08;;;;;;;11.80;5.35;;;;;;;;;;5059745;28;20048;-73
2022/12/05 13:49:44;;;;;;;13.15;5.10;;;;;;;;;;5037021;28;21574;-73
2022/12/05 13:52:16;;;;;;;14.70;5.25;;;;;;;;;;5061212;28;20048;-72
2022/12/05 13:54:48;;;;;;;14.75;5.78;;;;;;;;;;5046245;28;20214;-73
2022/12/05 13:57:33;;;;;;;15.00;6.10;;;;;;;;;;5060531;28;20043;-72
2022/12/05 14:00:09;;;;;;;12.90;5.60;;;;;;;;;;5044334;28;20059;-73
2022/12/05 14:02:41;;;;;;;11.35;5.50;;;;;;;;;;5046409;28;20060;-73
2022/12/05 14:05:13;;;;;;;16.25;6.30;;;;;;;;;;5064704;28;20120;-73
2022/12/05 14:07:49;;;;;;;9.52;5.65;;;;;;;;;;5045586;28;21026;-73
2022/12/05 14:10:28;;;;;;;15.10;5.93;;;;;;;;;;5040174;28;20131;-73
2022/12/05 14:13:01;;;;;;;11.48;5.93;;;;;;;;;;5040673;28;20058;-72
2022/12/05 14:15:30;;;;;;;14.10;5.90;;;;;;;;;;5040719;28;20067;-73
2022/12/05 14:18:06;;;;;;;13.30;5.68;;;;;;;;;;5045527;28;20044;-73
2022/12/05 14:20:45;;;;;;;10.05;5.80;;;;;;;;;;5046725;28;20124;-73
2022/12/05 14:23:29;;;;;;;26.67;6.75;;;;;;;;;;5049731;28;20058;-73
2022/12/05 14:26:05;;;;;;;12.63;6.15;;;;;;;;;;5045921;28;20040;-73
2022/12/05 14:28:31;;;;;;;10.43;5.68;;;;;;;;;;5033310;28;20048;-73
2022/12/05 14:31:12;;;;;;;11.60;5.97;;;;;;;;;;5045806;28;20639;-73
2022/12/05 14:33:38;;;;;;;11.75;5.93;;;;;;;;;;5044137;28;20044;-73
2022/12/05 14:36:06;;;;;;;15.25;6.30;;;;;;;;;;5053650;28;20595;-73
2022/12/05 14:38:33;;;;;;;15.70;5.25;;;;;;;;;;5048559;28;20067;-73
2022/12/05 14:41:18;;;;;;;17.73;5.93;;;;;;;;;;5045272;28;21032;-72
2022/12/05 14:43:51;;;;;;;13.18;6.15;;;;;;;;;;5046151;28;20406;-73
2022/12/05 14:46:27;;;;;;;16.55;6.95;;;;;;;;;;5043301;28;20049;-71